createdAt,value
2023-01-05T00:01:14.473Z,96.04
2023-01-05T00:06:14.888Z,96.14
2023-01-05T00:11:28.929Z,97.00
2023-01-05T00:16:39.517Z,97.18
2023-01-05T00:21:50.261Z,97.35
2023-01-05T00:26:41.908Z,97.35
2023-01-05T00:31:33.617Z,97.78
2023-01-05T00:36:25.268Z,98.42
2023-01-05T00:41:16.909Z,99.06
2023-01-05T00:46:08.559Z,98.53
2023-01-05T00:51:00.213Z,97.54
2023-01-05T00:55:58.615Z,96.65
2023-01-05T01:00:50.686Z,96.35
2023-01-05T01:05:42.399Z,96.03
2023-01-05T01:10:34.155Z,95.48
2023-01-05T01:15:25.874Z,95.26
2023-01-05T01:20:17.669Z,95.18
2023-01-05T01:25:09.692Z,95.41
2023-01-05T01:30:01.365Z,95.14
2023-01-05T01:34:55.149Z,94.86
2023-01-05T01:39:46.821Z,95.13
2023-01-05T01:44:47.485Z,94.70
2023-01-05T01:49:39.133Z,94.67
2023-01-05T01:54:30.923Z,94.44
2023-01-05T01:59:24.877Z,93.99
2023-01-05T02:04:16.586Z,94.19
2023-01-05T02:09:08.342Z,94.05
2023-01-05T02:14:15.309Z,94.77
2023-01-05T02:19:43.321Z,94.69
2023-01-05T02:25:19.470Z,94.87
2023-01-05T02:30:43.412Z,95.61
2023-01-05T02:35:50.699Z,95.63
2023-01-05T02:40:51.926Z,95.46
2023-01-05T02:45:43.574Z,96.06
2023-01-05T02:50:43.507Z,95.89
2023-01-05T02:55:41.602Z,95.51
2023-01-05T03:00:40.233Z,95.73
2023-01-05T03:05:40.065Z,95.76
2023-01-05T03:10:50.781Z,95.93
2023-01-05T03:15:46.451Z,96.31
2023-01-05T03:20:42.325Z,96.28
2023-01-05T03:25:56.447Z,96.42
2023-01-05T03:31:42.887Z,97.19
2023-01-05T03:36:42.496Z,97.38
2023-01-05T03:41:35.360Z,97.25
2023-01-05T03:46:28.223Z,97.56
2023-01-05T03:51:19.990Z,97.55
2023-01-05T03:56:11.622Z,98.13
2023-01-05T04:01:03.794Z,98.09
2023-01-05T04:05:55.656Z,98.89
2023-01-05T04:10:47.346Z,100.00
2023-01-05T04:15:40.233Z,100.00
2023-01-05T04:20:31.877Z,100.00
2023-01-05T04:25:23.674Z,100.00
2023-01-05T04:30:15.336Z,100.00
2023-01-05T04:35:11.257Z,100.00
2023-01-05T04:40:03.509Z,100.00
2023-01-05T04:44:55.205Z,100.00
2023-01-05T04:49:46.892Z,100.00
2023-01-05T04:54:38.528Z,100.00
2023-01-05T04:59:30.222Z,100.00
2023-01-05T05:04:21.980Z,100.00
2023-01-05T05:09:13.568Z,100.00
2023-01-05T05:14:05.197Z,100.00
2023-01-05T05:18:57.869Z,100.00
2023-01-05T05:23:49.548Z,100.00
2023-01-05T05:28:41.237Z,100.00
2023-01-05T05:33:32.928Z,100.00
2023-01-05T05:38:24.647Z,100.00
2023-01-05T05:43:16.479Z,100.00
2023-01-05T05:48:08.253Z,100.00
2023-01-05T05:53:00.459Z,100.00
2023-01-05T05:57:52.274Z,100.00
2023-01-05T06:02:44.137Z,100.00
2023-01-05T06:07:35.780Z,100.00
2023-01-05T06:12:27.394Z,100.00
2023-01-05T06:17:19.436Z,100.00
2023-01-05T06:22:11.049Z,100.00
2023-01-05T06:27:02.807Z,100.00
2023-01-05T06:31:54.556Z,100.00
2023-01-05T06:36:46.182Z,100.00
2023-01-05T06:41:37.891Z,100.00
2023-01-05T06:46:29.671Z,100.00
2023-01-05T06:51:21.568Z,100.00
2023-01-05T06:56:13.279Z,100.00
2023-01-05T07:01:05.188Z,100.00
2023-01-05T07:05:56.940Z,100.00
2023-01-05T07:10:48.619Z,100.00
2023-01-05T07:15:40.285Z,100.00
2023-01-05T07:20:31.968Z,100.00
2023-01-05T07:25:23.668Z,100.00
2023-01-05T07:30:15.348Z,100.00
2023-01-05T07:35:07.367Z,100.00
2023-01-05T07:39:59.000Z,100.00
2023-01-05T07:44:50.741Z,100.00
2023-01-05T07:49:42.427Z,100.00
2023-01-05T07:54:34.114Z,100.00
2023-01-05T07:59:25.820Z,100.00
2023-01-05T08:04:17.739Z,100.00
2023-01-05T08:09:28.261Z,100.00
2023-01-05T08:14:20.081Z,100.00
2023-01-05T08:19:12.031Z,100.00
2023-01-05T08:24:03.919Z,100.00
2023-01-05T08:28:55.773Z,100.00
2023-01-05T08:33:47.838Z,100.00
2023-01-05T08:38:48.555Z,100.00
2023-01-05T08:43:40.318Z,100.00
2023-01-05T08:48:32.052Z,100.00
2023-01-05T08:53:23.910Z,100.00
2023-01-05T08:58:15.646Z,100.00
2023-01-05T09:03:08.241Z,100.00
2023-01-05T09:08:00.276Z,100.00
2023-01-05T09:12:51.952Z,100.00
2023-01-05T09:17:43.694Z,100.00
2023-01-05T09:22:36.302Z,100.00
2023-01-05T09:27:28.007Z,100.00
2023-01-05T09:32:20.319Z,100.00
2023-01-05T09:37:11.932Z,100.00
2023-01-05T09:42:06.808Z,100.00
2023-01-05T09:47:11.967Z,100.00
2023-01-05T09:52:09.500Z,100.00
2023-01-05T09:57:10.523Z,100.00
2023-01-05T10:02:34.426Z,100.00
2023-01-05T10:07:55.711Z,100.00
2023-01-05T10:13:03.220Z,100.00
2023-01-05T10:17:55.401Z,100.00
2023-01-05T10:23:03.173Z,100.00
2023-01-05T10:28:31.950Z,100.00
2023-01-05T10:33:40.658Z,100.00
2023-01-05T10:38:57.049Z,100.00
2023-01-05T10:44:02.589Z,100.00
2023-01-05T10:48:54.325Z,100.00
2023-01-05T10:53:46.115Z,100.00
2023-01-05T10:58:39.980Z,100.00
2023-01-05T11:08:53.185Z,100.00
2023-01-05T11:13:49.545Z,100.00
2023-01-05T11:18:53.369Z,100.00
2023-01-05T11:23:52.036Z,100.00
2023-01-05T11:29:09.741Z,100.00
2023-01-05T11:34:12.062Z,100.00
2023-01-05T11:39:03.982Z,100.00
2023-01-05T11:44:00.375Z,100.00
2023-01-05T11:48:57.535Z,100.00
2023-01-05T11:53:49.177Z,100.00
2023-01-05T11:58:45.746Z,100.00
2023-01-05T12:03:58.872Z,100.00
2023-01-05T12:08:58.524Z,100.00
2023-01-05T12:14:17.572Z,100.00
2023-01-05T12:19:09.207Z,100.00
2023-01-05T12:24:29.445Z,100.00
2023-01-05T12:34:56.628Z,100.00
2023-01-05T12:40:22.794Z,100.00
2023-01-05T12:45:55.819Z,100.00
2023-01-05T12:51:00.809Z,100.00
2023-01-05T12:55:56.421Z,100.00
2023-01-05T13:00:50.151Z,100.00
2023-01-05T13:05:56.132Z,100.00
2023-01-05T13:10:54.230Z,100.00
2023-01-05T13:15:49.002Z,100.00
2023-01-05T13:20:47.043Z,100.00
2023-01-05T13:25:45.983Z,100.00
2023-01-05T13:30:45.664Z,100.00
2023-01-05T13:36:01.733Z,100.00
2023-01-05T13:40:56.672Z,100.00
2023-01-05T13:45:59.841Z,100.00
2023-01-05T13:51:12.698Z,100.00
2023-01-05T13:56:26.028Z,100.00
2023-01-05T14:01:33.327Z,100.00
2023-01-05T14:06:37.229Z,100.00
2023-01-05T14:11:29.458Z,100.00
2023-01-05T14:16:36.527Z,100.00
2023-01-05T14:21:50.009Z,100.00
2023-01-05T14:27:02.987Z,100.00
2023-01-05T14:31:55.533Z,98.67
2023-01-05T14:36:59.226Z,97.91
2023-01-05T14:42:12.436Z,97.77
2023-01-05T14:47:05.553Z,97.80
2023-01-05T14:52:00.518Z,98.08
2023-01-05T14:57:27.123Z,97.98
2023-01-05T15:02:26.262Z,98.54
2023-01-05T15:07:30.307Z,98.50
2023-01-05T15:12:31.880Z,100.00
2023-01-05T15:17:30.664Z,99.92
2023-01-05T15:22:41.927Z,100.00
2023-01-05T15:28:13.128Z,100.00
2023-01-05T15:33:15.541Z,100.00
2023-01-05T15:38:27.429Z,100.00
2023-01-05T15:43:19.383Z,100.00
2023-01-05T15:48:15.541Z,100.00
2023-01-05T15:53:27.611Z,100.00
2023-01-05T15:58:20.669Z,100.00
2023-01-05T16:03:27.153Z,100.00
2023-01-05T16:08:18.958Z,100.00
2023-01-05T16:13:14.123Z,100.00
2023-01-05T16:18:08.594Z,100.00
2023-01-05T16:23:17.249Z,100.00
2023-01-05T16:28:17.390Z,100.00
2023-01-05T16:33:11.882Z,100.00
2023-01-05T16:38:14.327Z,100.00
2023-01-05T16:43:23.573Z,100.00
2023-01-05T16:48:35.226Z,100.00
2023-01-05T16:53:27.327Z,100.00
2023-01-05T16:58:31.919Z,100.00
2023-01-05T17:03:23.542Z,100.00
2023-01-05T17:08:23.521Z,100.00
2023-01-05T17:13:21.315Z,100.00
2023-01-05T17:23:25.908Z,100.00
2023-01-05T17:28:17.640Z,100.00
2023-01-05T17:33:09.612Z,100.00
2023-01-05T17:38:01.167Z,100.00
2023-01-05T17:42:52.920Z,100.00
2023-01-05T17:47:44.981Z,100.00
2023-01-05T17:52:36.658Z,100.00
2023-01-05T17:57:28.445Z,100.00
2023-01-05T18:02:20.233Z,100.00
2023-01-05T18:07:11.937Z,100.00
2023-01-05T18:12:04.515Z,100.00
2023-01-05T18:16:56.178Z,100.00
2023-01-05T18:21:47.942Z,100.00
2023-01-05T18:26:39.790Z,100.00
2023-01-05T18:31:31.467Z,100.00
2023-01-05T18:36:23.070Z,100.00
2023-01-05T18:41:14.890Z,100.00
2023-01-05T18:46:06.917Z,100.00
2023-01-05T18:50:58.779Z,100.00
2023-01-05T18:55:50.422Z,100.00
2023-01-05T19:00:44.221Z,100.00
2023-01-05T19:05:43.468Z,100.00
2023-01-05T19:10:35.349Z,100.00
2023-01-05T19:15:26.983Z,100.00
2023-01-05T19:20:18.767Z,100.00
2023-01-05T19:25:10.447Z,100.00
2023-01-05T19:30:02.310Z,100.00
2023-01-05T19:34:53.990Z,100.00
2023-01-05T19:39:45.705Z,100.00
2023-01-05T19:44:37.368Z,100.00
2023-01-05T19:49:29.265Z,100.00
2023-01-05T19:54:22.622Z,100.00
2023-01-05T19:59:22.812Z,100.00
2023-01-05T20:04:14.729Z,100.00
2023-01-05T20:09:10.633Z,100.00
2023-01-05T20:14:06.916Z,100.00
2023-01-05T20:19:00.634Z,100.00
2023-01-05T20:23:52.293Z,100.00
2023-01-05T20:28:44.577Z,100.00
2023-01-05T20:33:36.259Z,100.00
2023-01-05T20:38:27.994Z,100.00
2023-01-05T20:43:19.712Z,100.00
2023-01-05T20:48:11.420Z,100.00
2023-01-05T20:53:06.188Z,100.00
2023-01-05T20:57:57.910Z,100.00
2023-01-05T21:02:51.636Z,100.00
2023-01-05T21:07:43.463Z,100.00
2023-01-05T21:12:35.213Z,100.00
2023-01-05T21:17:27.283Z,100.00
2023-01-05T21:22:18.958Z,100.00
2023-01-05T21:27:10.709Z,100.00
2023-01-05T21:32:02.822Z,100.00
2023-01-05T21:36:54.408Z,100.00
2023-01-05T21:42:05.473Z,100.00
2023-01-05T21:46:57.304Z,100.00
2023-01-05T21:52:07.325Z,100.00
2023-01-05T21:57:01.123Z,100.00
2023-01-05T22:01:52.810Z,100.00
2023-01-05T22:06:44.613Z,100.00
2023-01-05T22:11:36.391Z,100.00
2023-01-05T22:16:28.045Z,100.00
2023-01-05T22:21:19.724Z,100.00
2023-01-05T22:26:16.996Z,100.00
2023-01-05T22:31:18.229Z,100.00
2023-01-05T22:36:11.259Z,100.00
2023-01-05T22:41:04.172Z,100.00
2023-01-05T22:46:02.347Z,100.00
2023-01-05T22:50:54.147Z,100.00
2023-01-05T22:55:45.740Z,100.00
2023-01-05T23:00:37.637Z,100.00
2023-01-05T23:05:29.203Z,100.00
2023-01-05T23:10:22.141Z,100.00
2023-01-05T23:15:13.818Z,100.00
2023-01-05T23:20:06.282Z,100.00
2023-01-05T23:24:57.989Z,100.00
2023-01-05T23:29:49.569Z,100.00
2023-01-05T23:34:41.343Z,100.00
2023-01-05T23:39:32.979Z,100.00
2023-01-05T23:44:24.620Z,100.00
2023-01-05T23:49:16.287Z,100.00
2023-01-05T23:54:08.093Z,100.00
2023-01-05T23:59:05.924Z,100.00
